createdAt,value
2018-04-14T00:00:46.055Z,87.80
2018-04-14T00:03:12.634Z,88.00
2018-04-14T00:05:39.962Z,88.10
2018-04-14T00:08:07.284Z,88.20
2018-04-14T00:10:33.850Z,88.20
2018-04-14T00:13:00.506Z,88.60
2018-04-14T00:15:27.074Z,89.10
2018-04-14T00:17:53.628Z,89.30
2018-04-14T00:20:20.213Z,89.20
2018-04-14T00:22:46.781Z,89.30
2018-04-14T00:25:13.307Z,89.00
2018-04-14T00:27:39.936Z,89.10
2018-04-14T00:30:07.190Z,89.70
2018-04-14T00:32:34.477Z,89.40
2018-04-14T00:35:01.012Z,89.40
2018-04-14T00:37:27.538Z,89.40
2018-04-14T00:39:54.251Z,88.90
2018-04-14T00:42:21.546Z,89.10
2018-04-14T00:44:48.848Z,89.30
2018-04-14T00:47:15.387Z,89.30
2018-04-14T00:49:42.014Z,89.40
2018-04-14T00:52:08.579Z,89.30
2018-04-14T00:54:35.274Z,89.60
2018-04-14T00:57:01.889Z,88.70
2018-04-14T00:59:28.446Z,88.40
2018-04-14T01:01:55.008Z,88.60
2018-04-14T01:04:21.563Z,89.20
2018-04-14T01:06:48.205Z,89.60
2018-04-14T01:09:14.808Z,89.40
2018-04-14T01:11:41.409Z,89.60
2018-04-14T01:14:08.831Z,89.60
2018-04-14T01:16:35.402Z,89.70
2018-04-14T01:19:02.021Z,89.90
2018-04-14T01:21:28.595Z,90.00
2018-04-14T01:23:55.150Z,90.10
2018-04-14T01:26:21.781Z,90.20
2018-04-14T01:28:48.390Z,90.30
2018-04-14T01:31:14.986Z,90.30
2018-04-14T01:33:41.532Z,90.40
2018-04-14T01:36:08.207Z,90.30
2018-04-14T01:38:34.846Z,90.20
2018-04-14T01:41:01.424Z,90.40
2018-04-14T01:43:28.060Z,90.40
2018-04-14T01:45:54.612Z,90.50
2018-04-14T01:48:21.191Z,90.50
2018-04-14T01:50:47.758Z,90.70
2018-04-14T01:53:14.281Z,90.80
2018-04-14T01:55:40.817Z,90.90
2018-04-14T01:58:08.162Z,91.00
2018-04-14T02:00:34.697Z,91.10
2018-04-14T02:03:01.248Z,91.30
2018-04-14T02:05:27.922Z,91.20
2018-04-14T02:07:55.304Z,91.30
2018-04-14T02:10:21.899Z,91.20
2018-04-14T02:12:48.470Z,91.40
2018-04-14T02:15:15.051Z,91.50
2018-04-14T02:17:41.640Z,91.70
2018-04-14T02:20:08.949Z,91.80
2018-04-14T02:22:35.497Z,91.70
2018-04-14T02:25:02.062Z,91.80
2018-04-14T02:27:28.642Z,91.80
2018-04-14T02:29:55.189Z,91.80
2018-04-14T02:32:21.816Z,91.90
2018-04-14T02:34:48.365Z,92.00
2018-04-14T02:37:14.974Z,92.00
2018-04-14T02:39:41.624Z,92.00
2018-04-14T02:42:08.217Z,92.00
2018-04-14T02:44:35.525Z,92.00
2018-04-14T02:47:02.075Z,92.00
2018-04-14T02:49:28.634Z,92.00
2018-04-14T02:51:55.170Z,92.00
2018-04-14T02:54:21.828Z,92.00
2018-04-14T02:56:48.428Z,92.10
2018-04-14T02:59:14.992Z,92.20
2018-04-14T03:01:41.593Z,92.10
2018-04-14T03:04:08.656Z,92.10
2018-04-14T03:06:35.216Z,92.10
2018-04-14T03:09:02.623Z,92.30
2018-04-14T03:11:29.208Z,92.30
2018-04-14T03:13:55.748Z,92.40
2018-04-14T03:16:23.072Z,92.40
2018-04-14T03:18:49.691Z,92.40
2018-04-14T03:21:16.290Z,92.60
2018-04-14T03:23:42.879Z,92.60
2018-04-14T03:26:09.485Z,92.50
2018-04-14T03:28:36.081Z,92.40
2018-04-14T03:31:02.677Z,92.70
2018-04-14T03:33:30.107Z,92.80
2018-04-14T03:35:56.694Z,92.90
2018-04-14T03:38:23.315Z,92.80
2018-04-14T03:40:49.915Z,92.80
2018-04-14T03:43:16.513Z,92.70
2018-04-14T03:45:43.103Z,93.10
2018-04-14T03:48:09.695Z,93.20
2018-04-14T03:50:36.244Z,93.20
2018-04-14T03:53:03.573Z,93.20
2018-04-14T03:55:30.145Z,93.10
2018-04-14T03:57:56.699Z,93.10
2018-04-14T04:00:23.311Z,93.10
2018-04-14T04:02:49.913Z,93.10
2018-04-14T04:05:16.481Z,93.10
2018-04-14T04:07:43.072Z,93.10
2018-04-14T04:10:09.697Z,92.90
2018-04-14T04:12:36.323Z,92.90
2018-04-14T04:15:02.921Z,93.10
2018-04-14T04:17:29.491Z,93.20
2018-04-14T04:20:08.032Z,93.10
2018-04-14T04:22:46.667Z,93.10
2018-04-14T04:25:23.351Z,93.10
2018-04-14T04:27:49.932Z,92.90
2018-04-14T04:30:16.477Z,93.00
2018-04-14T04:32:43.055Z,93.00
2018-04-14T04:35:09.588Z,93.00
2018-04-14T04:37:36.198Z,93.00
2018-04-14T04:40:02.805Z,93.30
2018-04-14T04:42:30.077Z,93.80
2018-04-14T04:44:56.638Z,93.80
2018-04-14T04:47:23.243Z,94.00
2018-04-14T04:49:49.839Z,94.00
2018-04-14T04:52:16.424Z,94.00
2018-04-14T04:54:43.007Z,93.80
2018-04-14T04:57:09.586Z,94.10
2018-04-14T04:59:36.948Z,94.10
2018-04-14T05:02:03.587Z,94.10
2018-04-14T05:04:30.185Z,94.00
2018-04-14T05:06:56.763Z,93.90
2018-04-14T05:09:23.303Z,93.80
2018-04-14T05:11:49.841Z,93.90
2018-04-14T05:14:16.402Z,93.80
2018-04-14T05:16:42.997Z,93.70
2018-04-14T05:19:10.372Z,93.60
2018-04-14T05:21:37.883Z,93.60
2018-04-14T05:24:04.443Z,93.60
2018-04-14T05:26:31.480Z,93.70
2018-04-14T05:28:58.112Z,93.40
2018-04-14T05:31:24.665Z,93.30
2018-04-14T05:33:52.018Z,93.30
2018-04-14T05:36:18.570Z,93.20
2018-04-14T05:38:45.146Z,91.90
2018-04-14T05:41:14.905Z,92.20
2018-04-14T05:43:42.241Z,91.40
2018-04-14T05:46:08.845Z,91.50
2018-04-14T05:48:35.405Z,90.60
2018-04-14T05:51:01.954Z,89.70
2018-04-14T05:53:28.530Z,88.90
2018-04-14T05:55:55.097Z,89.80
2018-04-14T05:58:21.655Z,89.10
2018-04-14T06:00:48.210Z,87.50
2018-04-14T06:03:15.545Z,85.80
2018-04-14T06:05:42.078Z,86.30
2018-04-14T06:08:08.650Z,85.60
2018-04-14T06:10:35.202Z,87.30
2018-04-14T06:13:01.814Z,85.60
2018-04-14T06:15:29.092Z,84.50
2018-04-14T06:17:56.327Z,84.50
2018-04-14T06:20:23.649Z,83.20
2018-04-14T06:22:50.209Z,83.00
2018-04-14T06:25:17.557Z,82.10
2018-04-14T06:27:44.105Z,81.90
2018-04-14T06:30:11.494Z,82.20
2018-04-14T06:32:38.130Z,82.10
2018-04-14T06:35:04.697Z,78.00
2018-04-14T06:37:31.307Z,75.70
2018-04-14T06:39:57.912Z,74.90
2018-04-14T06:42:25.311Z,77.30
2018-04-14T06:44:51.968Z,77.20
2018-04-14T06:47:18.579Z,73.60
2018-04-14T06:49:45.167Z,74.60
2018-04-14T06:52:11.793Z,74.30
2018-04-14T06:54:38.470Z,71.50
2018-04-14T06:57:05.197Z,71.10
2018-04-14T06:59:32.520Z,70.80
2018-04-14T07:01:59.061Z,71.10
2018-04-14T07:04:25.653Z,67.90
2018-04-14T07:06:52.205Z,65.50
2018-04-14T07:09:19.487Z,68.50
2018-04-14T07:11:46.079Z,68.50
2018-04-14T07:14:12.676Z,66.00
2018-04-14T07:16:39.944Z,60.30
2018-04-14T07:19:07.207Z,62.60
2018-04-14T07:21:33.745Z,62.60
2018-04-14T07:24:00.337Z,60.00
2018-04-14T07:26:26.890Z,63.00
2018-04-14T07:28:54.177Z,58.20
2018-04-14T07:31:20.695Z,58.20
2018-04-14T07:33:47.247Z,55.70
2018-04-14T07:36:13.814Z,53.80
2018-04-14T07:38:40.394Z,52.30
2018-04-14T07:41:06.947Z,50.90
2018-04-14T07:43:33.519Z,49.90
2018-04-14T07:46:00.123Z,49.10
2018-04-14T07:48:26.745Z,48.50
2018-04-14T07:50:56.538Z,47.60
2018-04-14T07:53:23.180Z,43.40
2018-04-14T07:55:49.738Z,42.70
2018-04-14T07:58:16.337Z,45.70
2018-04-14T08:00:43.020Z,43.00
2018-04-14T08:03:10.396Z,42.90
2018-04-14T08:05:36.965Z,43.00
2018-04-14T08:08:03.546Z,41.70
2018-04-14T08:10:30.080Z,38.70
2018-04-14T08:12:56.616Z,37.00
2018-04-14T08:15:23.313Z,38.80
2018-04-14T08:17:49.885Z,38.30
2018-04-14T08:20:16.449Z,38.90
2018-04-14T08:22:43.041Z,37.50
2018-04-14T08:25:09.603Z,41.50
2018-04-14T08:27:36.188Z,38.70
2018-04-14T08:30:02.830Z,36.70
2018-04-14T08:32:29.398Z,35.80
2018-04-14T08:34:55.987Z,34.20
2018-04-14T08:37:22.673Z,39.50
2018-04-14T08:39:49.193Z,37.80
2018-04-14T08:42:15.760Z,33.30
2018-04-14T08:44:43.090Z,33.60
2018-04-14T08:47:09.585Z,33.10
2018-04-14T08:49:36.164Z,36.20
2018-04-14T08:52:02.805Z,35.00
2018-04-14T08:54:29.962Z,37.50
2018-04-14T08:56:56.958Z,35.50
2018-04-14T08:59:23.549Z,36.00
2018-04-14T09:01:50.885Z,28.90
2018-04-14T09:04:21.401Z,28.90
2018-04-14T09:06:48.005Z,26.60
2018-04-14T09:09:14.560Z,28.00
2018-04-14T09:11:41.195Z,30.10
2018-04-14T09:14:08.543Z,34.20
2018-04-14T09:16:35.132Z,33.10
2018-04-14T09:19:01.695Z,33.60
2018-04-14T09:21:28.429Z,35.80
2018-04-14T09:23:55.069Z,34.80
2018-04-14T09:26:21.592Z,31.40
2018-04-14T09:28:48.872Z,32.90
2018-04-14T09:31:15.474Z,32.80
2018-04-14T09:33:42.044Z,34.00
2018-04-14T09:36:08.593Z,34.10
2018-04-14T09:38:35.148Z,32.00
2018-04-14T09:41:01.670Z,30.30
2018-04-14T09:43:28.989Z,27.60
2018-04-14T09:45:55.631Z,27.50
2018-04-14T09:48:22.163Z,30.50
2018-04-14T09:50:49.434Z,28.80
2018-04-14T09:53:16.142Z,28.60
2018-04-14T09:55:42.718Z,28.10
2018-04-14T09:58:09.945Z,28.30
2018-04-14T10:00:43.211Z,30.40
2018-04-14T10:03:15.855Z,30.40
2018-04-14T10:05:42.403Z,29.90
2018-04-14T10:08:08.972Z,29.80
2018-04-14T10:10:35.566Z,28.00
2018-04-14T10:13:02.171Z,31.00
2018-04-14T10:15:29.490Z,26.80
2018-04-14T10:17:56.063Z,26.20
2018-04-14T10:20:22.660Z,28.20
2018-04-14T10:22:50.012Z,28.60
2018-04-14T10:25:17.496Z,33.00
2018-04-14T10:27:48.563Z,30.10
2018-04-14T10:30:15.197Z,29.80
2018-04-14T10:32:41.830Z,29.90
2018-04-14T10:35:08.541Z,26.70
2018-04-14T10:37:35.369Z,25.20
2018-04-14T10:40:01.997Z,26.80
2018-04-14T10:42:28.602Z,25.80
2018-04-14T10:44:55.141Z,28.80
2018-04-14T10:47:21.745Z,25.40
2018-04-14T10:49:49.305Z,24.30
2018-04-14T10:52:15.920Z,22.00
2018-04-14T10:54:42.596Z,22.40
2018-04-14T10:57:09.942Z,20.60
2018-04-14T10:59:37.257Z,21.90
2018-04-14T11:02:03.839Z,21.40
2018-04-14T11:04:31.239Z,23.20
2018-04-14T11:06:58.207Z,23.10
2018-04-14T11:09:24.727Z,22.90
2018-04-14T11:11:51.298Z,22.40
2018-04-14T11:14:17.941Z,23.10
2018-04-14T11:16:44.509Z,25.40
2018-04-14T11:19:11.386Z,25.60
2018-04-14T11:21:38.033Z,25.50
2018-04-14T11:24:04.657Z,22.90
2018-04-14T11:26:31.221Z,23.80
2018-04-14T11:28:57.832Z,21.40
2018-04-14T11:31:24.523Z,20.90
2018-04-14T11:33:51.047Z,22.90
2018-04-14T11:36:18.358Z,21.10
2018-04-14T11:38:44.998Z,20.90
2018-04-14T11:41:11.590Z,22.30
2018-04-14T11:43:38.894Z,20.10
2018-04-14T11:46:05.455Z,20.00
2018-04-14T11:48:31.992Z,21.00
2018-04-14T11:50:58.575Z,21.20
2018-04-14T11:53:25.105Z,21.00
2018-04-14T11:55:51.873Z,20.70
2018-04-14T11:58:18.384Z,18.50
2018-04-14T12:00:44.895Z,16.70
2018-04-14T12:03:11.452Z,18.40
2018-04-14T12:05:38.038Z,19.80
2018-04-14T12:08:04.586Z,22.00
2018-04-14T12:10:31.093Z,24.10
2018-04-14T12:12:57.658Z,22.90
2018-04-14T12:15:24.188Z,20.40
2018-04-14T12:17:50.850Z,21.70
2018-04-14T12:20:17.566Z,20.90
2018-04-14T12:22:44.194Z,19.10
2018-04-14T12:25:10.727Z,19.60
2018-04-14T12:27:37.238Z,20.20
2018-04-14T12:30:03.904Z,19.10
2018-04-14T12:32:30.428Z,19.30
2018-04-14T12:34:56.939Z,21.10
2018-04-14T12:37:23.522Z,21.40
2018-04-14T12:39:50.050Z,21.30
2018-04-14T12:42:16.598Z,21.60
2018-04-14T12:44:43.131Z,21.20
2018-04-14T12:47:09.684Z,21.40
2018-04-14T12:49:36.214Z,19.10
2018-04-14T12:52:02.780Z,22.30
2018-04-14T12:54:29.316Z,23.00
2018-04-14T12:56:55.937Z,22.60
2018-04-14T12:59:23.246Z,22.20
2018-04-14T13:01:49.831Z,22.20
2018-04-14T13:04:17.210Z,23.70
2018-04-14T13:06:43.857Z,23.60
2018-04-14T13:09:10.390Z,21.60
2018-04-14T13:11:36.892Z,21.60
2018-04-14T13:14:03.521Z,23.20
2018-04-14T13:16:30.119Z,22.40
2018-04-14T13:18:56.705Z,20.40
2018-04-14T13:21:23.231Z,24.20
2018-04-14T13:23:49.800Z,23.50
2018-04-14T13:26:16.323Z,23.90
2018-04-14T13:28:42.864Z,22.30
2018-04-14T13:31:09.373Z,22.70
2018-04-14T13:33:35.930Z,21.30
2018-04-14T13:36:02.513Z,22.60
2018-04-14T13:38:29.077Z,22.40
2018-04-14T13:40:56.359Z,21.70
2018-04-14T13:43:23.625Z,21.00
2018-04-14T13:45:51.073Z,20.80
2018-04-14T13:48:17.587Z,18.70
2018-04-14T13:50:44.149Z,16.90
2018-04-14T13:53:10.650Z,18.40
2018-04-14T13:55:37.212Z,16.90
2018-04-14T13:58:04.464Z,17.00
2018-04-14T14:00:31.726Z,18.60
2018-04-14T14:02:58.332Z,18.30
2018-04-14T14:05:25.609Z,19.20
2018-04-14T14:07:52.861Z,18.90
2018-04-14T14:10:20.139Z,18.80
2018-04-14T14:12:46.663Z,18.70
2018-04-14T14:15:13.250Z,19.00
2018-04-14T14:17:39.887Z,19.80
2018-04-14T14:20:06.477Z,22.50
2018-04-14T14:22:33.017Z,23.50
2018-04-14T14:24:59.595Z,25.00
2018-04-14T14:27:26.102Z,26.50
2018-04-14T14:29:52.643Z,25.40
2018-04-14T14:32:19.932Z,28.40
2018-04-14T14:34:46.478Z,28.10
2018-04-14T14:37:13.788Z,26.90
2018-04-14T14:39:40.363Z,26.70
2018-04-14T14:42:06.859Z,27.60
2018-04-14T14:44:33.395Z,27.40
2018-04-14T14:46:59.946Z,27.90
2018-04-14T14:49:26.480Z,27.80
2018-04-14T14:51:53.017Z,29.50
2018-04-14T14:54:19.558Z,29.70
2018-04-14T14:56:46.106Z,28.70
2018-04-14T14:59:12.634Z,28.20
2018-04-14T15:01:39.172Z,28.90
2018-04-14T15:04:05.709Z,29.10
2018-04-14T15:06:32.274Z,32.00
2018-04-14T15:08:59.578Z,30.10
2018-04-14T15:11:26.107Z,29.90
2018-04-14T15:13:52.642Z,29.60
2018-04-14T15:16:19.173Z,29.20
2018-04-14T15:18:46.308Z,29.80
2018-04-14T15:21:12.842Z,30.10
2018-04-14T15:23:39.342Z,31.50
2018-04-14T15:26:05.877Z,33.10
2018-04-14T15:28:32.653Z,31.20
2018-04-14T15:30:59.285Z,29.70
2018-04-14T15:33:26.035Z,30.70
2018-04-14T15:35:52.634Z,30.00
2018-04-14T15:38:19.260Z,29.50
2018-04-14T15:40:45.824Z,30.90
2018-04-14T15:43:12.403Z,30.10
2018-04-14T15:45:39.034Z,29.60
2018-04-14T15:48:05.584Z,29.80
2018-04-14T15:50:32.174Z,29.60
2018-04-14T15:52:58.792Z,29.40
2018-04-14T15:55:25.361Z,29.30
2018-04-14T15:57:51.921Z,29.40
2018-04-14T16:00:18.495Z,29.60
2018-04-14T16:02:45.026Z,29.70
2018-04-14T16:05:11.530Z,31.30
2018-04-14T16:07:38.106Z,29.80
2018-04-14T16:10:04.653Z,30.20
2018-04-14T16:12:31.304Z,30.30
2018-04-14T16:14:57.923Z,30.40
2018-04-14T16:17:25.207Z,31.90
2018-04-14T16:19:52.559Z,32.30
2018-04-14T16:22:19.225Z,31.80
2018-04-14T16:24:45.827Z,31.90
2018-04-14T16:27:16.886Z,32.00
2018-04-14T16:29:44.358Z,31.30
2018-04-14T16:32:14.894Z,30.70
2018-04-14T16:34:46.567Z,31.20
2018-04-14T16:37:13.751Z,32.00
2018-04-14T16:39:41.066Z,32.10
2018-04-14T16:42:07.619Z,32.00
2018-04-14T16:44:34.238Z,32.20
2018-04-14T16:47:00.801Z,32.90
2018-04-14T16:49:27.446Z,34.10
2018-04-14T16:51:54.034Z,32.50
2018-04-14T16:54:21.268Z,32.80
2018-04-14T16:56:47.853Z,32.50
2018-04-14T16:59:14.463Z,32.60
2018-04-14T17:01:41.119Z,33.10
2018-04-14T17:04:07.740Z,34.50
2018-04-14T17:06:34.350Z,34.70
2018-04-14T17:09:00.931Z,34.80
2018-04-14T17:11:27.477Z,35.70
2018-04-14T17:13:54.771Z,37.80
2018-04-14T17:16:21.322Z,38.20
2018-04-14T17:18:47.990Z,38.00
2018-04-14T17:21:14.564Z,38.70
2018-04-14T17:23:41.100Z,39.90
2018-04-14T17:26:07.601Z,40.20
2018-04-14T17:28:34.199Z,40.30
2018-04-14T17:31:00.776Z,41.60
2018-04-14T17:33:27.363Z,42.40
2018-04-14T17:35:54.722Z,43.40
2018-04-14T17:38:21.281Z,43.30
2018-04-14T17:40:47.915Z,43.60
2018-04-14T17:43:14.473Z,44.20
2018-04-14T17:45:40.971Z,45.20
2018-04-14T17:48:07.487Z,46.10
2018-04-14T17:50:34.019Z,47.10
2018-04-14T17:53:00.548Z,48.30
2018-04-14T17:55:27.081Z,49.40
2018-04-14T17:57:54.332Z,50.40
2018-04-14T18:00:20.884Z,50.30
2018-04-14T18:02:48.341Z,50.50
2018-04-14T18:05:14.851Z,51.40
2018-04-14T18:07:41.456Z,52.20
2018-04-14T18:10:08.064Z,52.70
2018-04-14T18:12:34.615Z,53.80
2018-04-14T18:17:40.002Z,56.60
2018-04-14T18:20:06.678Z,56.30
2018-04-14T18:22:34.552Z,56.60
2018-04-14T18:25:01.166Z,57.80
2018-04-14T18:27:27.801Z,57.50
2018-04-14T18:32:38.507Z,57.50
2018-04-14T18:35:05.095Z,58.00
2018-04-14T18:37:32.478Z,60.10
2018-04-14T18:42:57.010Z,61.00
2018-04-14T18:45:23.701Z,61.20
2018-04-14T18:47:56.315Z,62.90
2018-04-14T18:50:46.590Z,62.90
2018-04-14T18:53:13.212Z,63.60
2018-04-14T18:55:39.838Z,64.00
2018-04-14T18:58:06.535Z,64.40
2018-04-14T19:00:33.171Z,64.90
2018-04-14T19:02:59.741Z,65.30
2018-04-14T19:05:27.047Z,66.00
2018-04-14T19:07:53.605Z,66.10
2018-04-14T19:10:20.191Z,66.30
2018-04-14T19:12:46.749Z,66.80
2018-04-14T19:15:13.273Z,67.20
2018-04-14T19:17:39.824Z,67.70
2018-04-14T19:20:06.428Z,67.80
2018-04-14T19:22:34.989Z,68.80
2018-04-14T19:25:01.525Z,69.10
2018-04-14T19:27:28.787Z,68.80
2018-04-14T19:29:56.041Z,68.80
2018-04-14T19:32:23.635Z,70.00
2018-04-14T19:34:50.174Z,69.90
2018-04-14T19:37:16.731Z,70.90
2018-04-14T19:39:43.326Z,71.20
2018-04-14T19:42:09.868Z,71.60
2018-04-14T19:44:36.430Z,71.70
2018-04-14T19:47:03.020Z,71.50
2018-04-14T19:49:34.316Z,72.60
2018-04-14T19:52:03.297Z,73.00
2018-04-14T19:54:31.767Z,72.90
2018-04-14T19:57:01.345Z,72.80
2018-04-14T19:59:28.676Z,73.10
2018-04-14T20:01:57.485Z,74.20
2018-04-14T20:04:25.023Z,74.40
2018-04-14T20:06:54.117Z,75.30
2018-04-14T20:09:20.859Z,75.40
2018-04-14T20:11:47.854Z,75.80
2018-04-14T20:14:14.467Z,76.30
2018-04-14T20:16:41.856Z,76.20
2018-04-14T20:19:08.478Z,76.10
2018-04-14T20:21:35.052Z,76.40
2018-04-14T20:24:01.631Z,77.20
2018-04-14T20:26:28.909Z,77.80
2018-04-14T20:28:55.582Z,77.80
2018-04-14T20:31:22.883Z,78.50
2018-04-14T20:33:49.519Z,79.20
2018-04-14T20:36:16.171Z,79.00
2018-04-14T20:38:42.725Z,79.10
2018-04-14T20:41:09.381Z,78.50
2018-04-14T20:43:36.068Z,78.80
2018-04-14T20:46:02.725Z,78.30
2018-04-14T20:48:29.377Z,78.10
2018-04-14T20:50:56.737Z,77.80
2018-04-14T20:53:23.987Z,77.80
2018-04-14T20:55:50.724Z,76.70
2018-04-14T20:58:17.407Z,75.50
2018-04-14T21:00:44.033Z,74.80
2018-04-14T21:03:10.731Z,73.90
2018-04-14T21:05:37.370Z,75.50
2018-04-14T21:08:04.025Z,75.20
2018-04-14T21:10:30.635Z,75.70
2018-04-14T21:12:57.243Z,75.80
2018-04-14T21:15:23.866Z,76.90
2018-04-14T21:17:50.404Z,77.50
2018-04-14T21:20:17.040Z,77.30
2018-04-14T21:22:44.641Z,78.80
2018-04-14T21:25:20.093Z,80.10
2018-04-14T21:27:46.811Z,80.00
2018-04-14T21:30:13.422Z,80.10
2018-04-14T21:32:40.159Z,79.50
2018-04-14T21:35:07.053Z,80.30
2018-04-14T21:37:34.630Z,79.10
2018-04-14T21:40:01.267Z,79.10
2018-04-14T21:42:27.893Z,80.20
2018-04-14T21:44:54.627Z,79.30
2018-04-14T21:47:21.271Z,77.20
2018-04-14T21:49:47.908Z,78.50
2018-04-14T21:52:14.536Z,77.80
2018-04-14T21:54:41.164Z,78.40
2018-04-14T21:57:07.775Z,78.60
2018-04-14T21:59:35.269Z,78.20
2018-04-14T22:02:02.652Z,79.40
2018-04-14T22:04:29.235Z,79.30
2018-04-14T22:06:56.186Z,78.80
2018-04-14T22:09:22.761Z,78.80
2018-04-14T22:11:49.478Z,80.40
2018-04-14T22:14:34.867Z,80.70
2018-04-14T22:17:02.305Z,81.00
2018-04-14T22:19:29.013Z,81.60
2018-04-14T22:21:55.618Z,81.30
2018-04-14T22:24:22.224Z,81.40
2018-04-14T22:26:49.299Z,80.50
2018-04-14T22:29:17.143Z,80.60
2018-04-14T22:31:43.788Z,80.60
2018-04-14T22:34:11.112Z,80.00
2018-04-14T22:36:37.804Z,80.00
2018-04-14T22:39:04.395Z,79.30
2018-04-14T22:41:30.909Z,78.90
2018-04-14T22:43:57.448Z,78.90
2018-04-14T22:46:24.695Z,78.40
2018-04-14T22:48:51.347Z,78.70
2018-04-14T22:51:17.972Z,78.20
2018-04-14T22:53:44.469Z,78.90
2018-04-14T22:56:10.992Z,78.90
2018-04-14T22:58:37.484Z,79.50
2018-04-14T23:01:07.695Z,79.60
2018-04-14T23:03:35.028Z,79.80
2018-04-14T23:06:01.564Z,79.70
2018-04-14T23:08:28.093Z,78.90
2018-04-14T23:10:55.361Z,78.80
2018-04-14T23:13:21.837Z,78.80
2018-04-14T23:15:48.388Z,80.00
2018-04-14T23:18:15.689Z,80.70
2018-04-14T23:20:42.218Z,80.10
2018-04-14T23:23:08.735Z,80.50
2018-04-14T23:25:36.051Z,81.80
2018-04-14T23:28:02.595Z,81.80
2018-04-14T23:30:29.124Z,82.30
2018-04-14T23:32:55.673Z,82.70
2018-04-14T23:35:22.219Z,83.30
2018-04-14T23:37:49.496Z,83.70
2018-04-14T23:40:16.004Z,83.70
2018-04-14T23:42:42.513Z,83.80
2018-04-14T23:45:09.039Z,84.10
2018-04-14T23:47:35.574Z,84.20
2018-04-14T23:50:02.123Z,84.30
2018-04-14T23:52:28.645Z,84.40
2018-04-14T23:54:55.197Z,84.40
2018-04-14T23:57:21.721Z,84.60
2018-04-14T23:59:48.244Z,85.10
